createdAt,value
2018-03-28T00:00:43.203Z,0.00
2018-03-28T00:01:43.124Z,0.00
2018-03-28T00:02:43.045Z,0.00
2018-03-28T00:03:42.968Z,0.00
2018-03-28T00:04:42.891Z,0.00
2018-03-28T00:05:42.806Z,0.00
2018-03-28T00:06:42.727Z,0.00
2018-03-28T00:07:42.648Z,0.00
2018-03-28T00:08:42.568Z,0.00
2018-03-28T00:09:42.489Z,0.00
2018-03-28T00:10:42.410Z,0.00
2018-03-28T00:11:42.330Z,0.00
2018-03-28T00:12:42.250Z,0.00
2018-03-28T00:13:42.171Z,0.00
2018-03-28T00:14:42.091Z,0.00
2018-03-28T00:15:42.012Z,0.00
2018-03-28T00:16:41.930Z,0.00
2018-03-28T00:17:41.854Z,0.00
2018-03-28T00:18:41.772Z,0.00
2018-03-28T00:19:41.694Z,0.00
2018-03-28T00:20:41.613Z,0.00
2018-03-28T00:21:41.535Z,0.00
2018-03-28T00:22:41.457Z,0.00
2018-03-28T00:23:41.374Z,0.00
2018-03-28T00:24:41.295Z,0.00
2018-03-28T00:25:41.216Z,0.00
2018-03-28T00:26:41.137Z,0.00
2018-03-28T00:27:41.064Z,0.00
2018-03-28T00:28:40.978Z,0.00
2018-03-28T00:29:40.898Z,0.00
2018-03-28T00:30:40.819Z,0.00
2018-03-28T00:31:40.741Z,0.00
2018-03-28T00:32:40.659Z,0.00
2018-03-28T00:33:40.580Z,0.00
2018-03-28T00:34:40.507Z,0.00
2018-03-28T00:35:40.420Z,0.00
2018-03-28T00:36:40.341Z,0.00
2018-03-28T00:37:40.322Z,0.00
2018-03-28T00:38:40.181Z,0.00
2018-03-28T00:39:40.102Z,0.00
2018-03-28T00:40:40.023Z,0.00
2018-03-28T00:41:39.949Z,0.00
2018-03-28T00:42:39.864Z,0.00
2018-03-28T00:43:39.785Z,0.00
2018-03-28T00:44:39.704Z,0.00
2018-03-28T00:45:39.625Z,0.00
2018-03-28T00:46:39.546Z,0.00
2018-03-28T00:47:39.466Z,0.00
2018-03-28T00:48:39.386Z,0.00
2018-03-28T00:49:39.306Z,0.00
2018-03-28T00:50:39.226Z,0.00
2018-03-28T00:51:39.146Z,0.00
2018-03-28T00:52:39.067Z,0.00
2018-03-28T00:53:38.988Z,0.00
2018-03-28T00:54:38.907Z,0.00
2018-03-28T00:55:38.828Z,0.00
2018-03-28T00:56:38.748Z,0.00
2018-03-28T00:57:38.669Z,0.00
2018-03-28T00:58:38.589Z,0.00
2018-03-28T00:59:38.510Z,0.00
2018-03-28T01:00:38.429Z,0.00
2018-03-28T01:01:38.350Z,0.00
2018-03-28T01:02:38.271Z,0.00
2018-03-28T01:03:38.191Z,0.00
2018-03-28T01:04:38.111Z,0.00
2018-03-28T01:05:38.031Z,0.00
2018-03-28T01:06:37.951Z,0.00
2018-03-28T01:07:37.872Z,0.00
2018-03-28T01:08:37.795Z,0.00
2018-03-28T01:09:37.712Z,0.00
2018-03-28T01:10:38.133Z,0.00
2018-03-28T01:11:37.553Z,0.00
2018-03-28T01:12:37.476Z,0.00
2018-03-28T01:13:37.395Z,0.00
2018-03-28T01:14:37.314Z,0.00
2018-03-28T01:15:37.235Z,0.00
2018-03-28T01:16:37.153Z,0.00
2018-03-28T01:17:37.074Z,0.00
2018-03-28T01:18:36.995Z,0.00
2018-03-28T01:19:36.915Z,0.00
2018-03-28T01:20:36.834Z,0.00
2018-03-28T01:21:36.755Z,0.00
2018-03-28T01:22:36.676Z,0.00
2018-03-28T01:23:36.600Z,0.00
2018-03-28T01:24:36.516Z,0.00
2018-03-28T01:25:36.437Z,0.00
2018-03-28T01:26:36.358Z,0.00
2018-03-28T01:27:36.278Z,0.00
2018-03-28T01:28:36.198Z,0.00
2018-03-28T01:29:36.122Z,0.00
2018-03-28T01:30:36.040Z,0.00
2018-03-28T01:31:35.960Z,0.00
2018-03-28T01:32:35.880Z,0.00
2018-03-28T01:33:35.801Z,0.00
2018-03-28T01:34:35.722Z,0.00
2018-03-28T01:35:35.643Z,0.00
2018-03-28T01:36:35.563Z,0.00
2018-03-28T01:37:35.483Z,0.00
2018-03-28T01:38:35.404Z,0.00
2018-03-28T01:39:35.325Z,0.00
2018-03-28T01:40:35.245Z,0.00
2018-03-28T01:41:35.167Z,0.00
2018-03-28T01:42:35.086Z,0.00
2018-03-28T01:43:35.007Z,0.00
2018-03-28T01:44:34.927Z,0.00
2018-03-28T01:45:34.848Z,0.00
2018-03-28T01:46:34.769Z,0.00
2018-03-28T01:47:34.689Z,0.00
2018-03-28T01:48:34.609Z,0.00
2018-03-28T01:49:34.534Z,0.00
2018-03-28T01:50:34.451Z,0.00
2018-03-28T01:51:34.373Z,0.00
2018-03-28T01:52:34.291Z,0.00
2018-03-28T01:53:34.212Z,0.00
2018-03-28T01:54:34.133Z,0.00
2018-03-28T01:55:34.054Z,0.00
2018-03-28T01:56:33.974Z,0.00
2018-03-28T01:57:33.894Z,0.00
2018-03-28T01:58:33.818Z,0.00
2018-03-28T01:59:33.737Z,0.00
2018-03-28T02:00:33.661Z,0.00
2018-03-28T02:01:33.578Z,0.00
2018-03-28T02:02:33.499Z,0.00
2018-03-28T02:03:33.419Z,0.00
2018-03-28T02:04:33.340Z,0.00
2018-03-28T02:05:33.262Z,0.00
2018-03-28T02:06:33.181Z,0.00
2018-03-28T02:07:33.102Z,0.00
2018-03-28T02:08:33.021Z,0.00
2018-03-28T02:09:32.943Z,0.00
2018-03-28T02:10:32.863Z,0.00
2018-03-28T02:11:32.786Z,0.00
2018-03-28T02:12:32.703Z,0.00
2018-03-28T02:13:32.624Z,0.00
2018-03-28T02:14:32.547Z,0.00
2018-03-28T02:15:32.466Z,0.00
2018-03-28T02:16:32.387Z,0.00
2018-03-28T02:17:32.309Z,0.00
2018-03-28T02:18:32.234Z,0.00
2018-03-28T02:19:32.151Z,0.00
2018-03-28T02:20:32.071Z,0.00
2018-03-28T02:21:31.990Z,0.00
2018-03-28T02:22:31.912Z,0.00
2018-03-28T02:23:31.834Z,0.00
2018-03-28T02:24:31.753Z,0.00
2018-03-28T02:25:31.674Z,0.00
2018-03-28T02:26:31.596Z,0.00
2018-03-28T02:27:31.516Z,0.00
2018-03-28T02:28:31.436Z,0.00
2018-03-28T02:29:31.357Z,0.00
2018-03-28T02:30:31.278Z,0.00
2018-03-28T02:31:31.199Z,0.00
2018-03-28T02:32:31.120Z,0.00
2018-03-28T02:33:31.051Z,0.00
2018-03-28T02:34:30.961Z,0.00
2018-03-28T02:35:30.891Z,0.00
2018-03-28T02:36:30.807Z,0.00
2018-03-28T02:37:30.727Z,0.00
2018-03-28T02:38:30.946Z,0.00
2018-03-28T02:39:30.564Z,0.00
2018-03-28T02:40:30.486Z,0.00
2018-03-28T02:41:30.406Z,0.00
2018-03-28T02:42:30.335Z,0.00
2018-03-28T02:43:30.250Z,0.00
2018-03-28T02:44:30.169Z,0.00
2018-03-28T02:45:30.089Z,0.00
2018-03-28T02:46:30.013Z,0.00
2018-03-28T02:47:29.931Z,0.00
2018-03-28T02:48:29.850Z,0.00
2018-03-28T02:49:29.773Z,0.00
2018-03-28T02:50:29.693Z,0.00
2018-03-28T02:51:29.615Z,0.00
2018-03-28T02:52:29.536Z,0.00
2018-03-28T02:53:29.456Z,0.00
2018-03-28T02:54:29.377Z,0.00
2018-03-28T02:55:29.297Z,0.00
2018-03-28T02:56:29.217Z,0.00
2018-03-28T02:57:29.142Z,0.00
2018-03-28T02:58:29.061Z,0.00
2018-03-28T02:59:28.983Z,0.00
2018-03-28T03:00:28.902Z,0.00
2018-03-28T03:01:28.824Z,0.00
2018-03-28T03:02:28.744Z,0.00
2018-03-28T03:03:28.666Z,0.00
2018-03-28T03:04:28.586Z,0.00
2018-03-28T03:05:28.508Z,0.00
2018-03-28T03:06:28.429Z,0.00
2018-03-28T03:07:28.351Z,0.00
2018-03-28T03:08:28.272Z,0.00
2018-03-28T03:09:28.192Z,0.00
2018-03-28T03:10:28.114Z,0.00
2018-03-28T03:11:28.036Z,0.00
2018-03-28T03:12:27.955Z,0.00
2018-03-28T03:13:27.876Z,0.00
2018-03-28T03:14:27.798Z,0.00
2018-03-28T03:15:27.720Z,0.00
2018-03-28T03:16:27.640Z,0.00
2018-03-28T03:17:27.562Z,0.00
2018-03-28T03:18:27.483Z,0.00
2018-03-28T03:19:27.404Z,0.00
2018-03-28T03:20:27.324Z,0.00
2018-03-28T03:21:27.244Z,0.00
2018-03-28T03:22:27.166Z,0.00
2018-03-28T03:23:27.090Z,0.00
2018-03-28T03:24:27.008Z,0.00
2018-03-28T03:25:26.929Z,0.00
2018-03-28T03:26:26.854Z,0.00
2018-03-28T03:27:26.771Z,0.00
2018-03-28T03:28:26.692Z,0.00
2018-03-28T03:29:26.639Z,0.00
2018-03-28T03:30:26.535Z,0.00
2018-03-28T03:31:26.463Z,0.00
2018-03-28T03:32:26.375Z,0.00
2018-03-28T03:33:26.297Z,0.00
2018-03-28T03:34:26.217Z,0.00
2018-03-28T03:35:26.140Z,0.00
2018-03-28T03:36:26.062Z,0.00
2018-03-28T03:37:25.982Z,0.00
2018-03-28T03:38:25.902Z,0.00
2018-03-28T03:39:25.823Z,0.00
2018-03-28T03:40:25.744Z,0.00
2018-03-28T03:41:25.665Z,0.00
2018-03-28T03:42:25.587Z,0.00
2018-03-28T03:43:25.508Z,0.00
2018-03-28T03:44:25.429Z,0.00
2018-03-28T03:45:25.350Z,0.00
2018-03-28T03:46:25.271Z,0.00
2018-03-28T03:47:25.193Z,0.00
2018-03-28T03:48:25.113Z,0.00
2018-03-28T03:49:25.034Z,0.00
2018-03-28T03:50:24.962Z,0.00
2018-03-28T03:51:24.875Z,0.00
2018-03-28T03:52:24.798Z,0.00
2018-03-28T03:53:24.719Z,0.00
2018-03-28T03:54:24.644Z,0.00
2018-03-28T03:55:24.561Z,0.00
2018-03-28T03:56:24.483Z,0.00
2018-03-28T03:57:24.403Z,0.00
2018-03-28T03:58:24.325Z,0.00
2018-03-28T03:59:24.247Z,0.00
2018-03-28T04:00:24.168Z,0.00
2018-03-28T04:01:24.089Z,0.00
2018-03-28T04:02:24.016Z,0.00
2018-03-28T04:03:23.932Z,0.00
2018-03-28T04:04:23.853Z,0.00
2018-03-28T04:05:23.774Z,0.00
2018-03-28T04:06:23.696Z,0.00
2018-03-28T04:07:23.618Z,0.00
2018-03-28T04:08:23.537Z,0.00
2018-03-28T04:09:23.459Z,0.00
2018-03-28T04:10:23.381Z,0.00
2018-03-28T04:11:23.302Z,0.00
2018-03-28T04:12:23.223Z,0.00
2018-03-28T04:13:23.145Z,0.00
2018-03-28T04:14:23.066Z,0.00
2018-03-28T04:15:22.988Z,0.00
2018-03-28T04:16:22.909Z,0.00
2018-03-28T04:17:22.830Z,0.00
2018-03-28T04:18:22.752Z,0.00
2018-03-28T04:19:22.674Z,0.00
2018-03-28T04:20:22.597Z,0.00
2018-03-28T04:21:22.516Z,0.00
2018-03-28T04:22:22.438Z,0.00
2018-03-28T04:23:22.360Z,0.00
2018-03-28T04:24:22.281Z,0.00
2018-03-28T04:25:22.202Z,0.00
2018-03-28T04:26:22.123Z,0.00
2018-03-28T04:27:22.046Z,0.00
2018-03-28T04:28:21.966Z,0.00
2018-03-28T04:29:21.890Z,0.00
2018-03-28T04:30:21.811Z,0.00
2018-03-28T04:31:21.733Z,0.00
2018-03-28T04:32:21.653Z,0.00
2018-03-28T04:33:21.575Z,0.00
2018-03-28T04:34:21.497Z,0.00
2018-03-28T04:35:21.420Z,0.00
2018-03-28T04:36:21.339Z,0.00
2018-03-28T04:37:21.262Z,0.00
2018-03-28T04:38:21.182Z,0.00
2018-03-28T04:39:21.108Z,0.00
2018-03-28T04:40:21.027Z,0.00
2018-03-28T04:41:20.949Z,0.00
2018-03-28T04:42:20.870Z,0.00
2018-03-28T04:43:20.792Z,0.00
2018-03-28T04:44:20.712Z,0.00
2018-03-28T04:45:20.640Z,0.00
2018-03-28T04:46:20.557Z,0.00
2018-03-28T04:47:20.484Z,0.00
2018-03-28T04:48:20.401Z,0.00
2018-03-28T04:49:20.326Z,0.00
2018-03-28T04:50:20.244Z,4.00
2018-03-28T04:51:20.165Z,0.00
2018-03-28T04:52:20.087Z,0.00
2018-03-28T04:53:20.009Z,4.00
2018-03-28T04:54:19.931Z,4.00
2018-03-28T04:55:19.854Z,4.00
2018-03-28T04:56:19.774Z,4.00
2018-03-28T04:57:19.696Z,4.00
2018-03-28T04:58:19.617Z,8.00
2018-03-28T04:59:19.540Z,4.00
2018-03-28T05:00:19.524Z,12.00
2018-03-28T05:01:19.383Z,12.00
2018-03-28T05:02:19.304Z,8.00
2018-03-28T05:03:19.229Z,12.00
2018-03-28T05:04:19.169Z,16.00
2018-03-28T05:05:19.070Z,16.00
2018-03-28T05:06:18.991Z,20.00
2018-03-28T05:07:18.913Z,24.00
2018-03-28T05:08:18.836Z,24.00
2018-03-28T05:09:18.761Z,32.00
2018-03-28T05:10:18.688Z,28.00
2018-03-28T05:11:18.603Z,28.00
2018-03-28T05:12:18.521Z,32.00
2018-03-28T05:13:18.444Z,32.00
2018-03-28T05:14:18.365Z,52.00
2018-03-28T05:15:18.287Z,56.00
2018-03-28T05:16:18.208Z,48.00
2018-03-28T05:17:18.130Z,64.00
2018-03-28T05:18:18.051Z,80.00
2018-03-28T05:19:17.974Z,96.00
2018-03-28T05:20:17.895Z,92.00
2018-03-28T05:21:17.817Z,96.00
2018-03-28T05:22:17.739Z,100.00
2018-03-28T05:23:17.660Z,112.00
2018-03-28T05:24:17.581Z,108.00
2018-03-28T05:25:17.503Z,108.00
2018-03-28T05:26:17.425Z,104.00
2018-03-28T05:27:17.347Z,108.00
2018-03-28T05:28:17.267Z,88.00
2018-03-28T05:29:17.190Z,84.00
2018-03-28T05:30:17.111Z,116.00
2018-03-28T05:31:17.033Z,128.00
2018-03-28T05:32:16.954Z,152.00
2018-03-28T05:33:16.876Z,144.00
2018-03-28T05:34:16.797Z,144.00
2018-03-28T05:35:16.720Z,132.00
2018-03-28T05:36:16.640Z,112.00
2018-03-28T05:37:16.562Z,124.00
2018-03-28T05:38:16.485Z,124.00
2018-03-28T05:39:16.407Z,112.00
2018-03-28T05:40:16.327Z,104.00
2018-03-28T05:41:16.248Z,92.00
2018-03-28T05:42:16.221Z,100.00
2018-03-28T05:43:16.120Z,128.00
2018-03-28T05:44:16.013Z,128.00
2018-03-28T05:45:15.936Z,112.00
2018-03-28T05:46:15.858Z,124.00
2018-03-28T05:47:15.782Z,176.00
2018-03-28T05:48:15.701Z,212.00
2018-03-28T05:49:15.621Z,180.00
2018-03-28T05:50:15.544Z,188.00
2018-03-28T05:51:15.473Z,196.00
2018-03-28T05:52:15.387Z,208.00
2018-03-28T05:53:15.311Z,204.00
2018-03-28T05:54:15.230Z,244.00
2018-03-28T05:55:15.153Z,220.00
2018-03-28T05:56:15.074Z,196.00
2018-03-28T05:57:14.995Z,280.00
2018-03-28T05:58:14.917Z,328.00
2018-03-28T05:59:14.840Z,344.00
2018-03-28T06:00:14.760Z,320.00
2018-03-28T06:01:14.700Z,404.00
2018-03-28T06:02:14.605Z,440.00
2018-03-28T06:03:14.530Z,492.00
2018-03-28T06:04:14.446Z,532.00
2018-03-28T06:05:14.373Z,648.00
2018-03-28T06:06:14.291Z,660.00
2018-03-28T06:07:14.213Z,668.00
2018-03-28T06:08:14.139Z,696.00
2018-03-28T06:09:14.055Z,660.00
2018-03-28T06:10:13.977Z,596.00
2018-03-28T06:11:13.900Z,520.00
2018-03-28T06:12:13.820Z,432.00
2018-03-28T06:13:13.742Z,388.00
2018-03-28T06:14:13.664Z,380.00
2018-03-28T06:15:13.585Z,356.00
2018-03-28T06:16:13.506Z,328.00
2018-03-28T06:17:13.428Z,304.00
2018-03-28T06:18:13.349Z,308.00
2018-03-28T06:19:13.272Z,376.00
2018-03-28T06:20:13.193Z,456.00
2018-03-28T06:21:13.116Z,524.00
2018-03-28T06:22:13.037Z,824.00
2018-03-28T06:23:12.958Z,796.00
2018-03-28T06:24:12.929Z,776.00
2018-03-28T06:25:12.802Z,816.00
2018-03-28T06:26:12.725Z,724.00
2018-03-28T06:27:12.645Z,872.00
2018-03-28T06:28:12.566Z,780.00
2018-03-28T06:29:12.493Z,852.00
2018-03-28T06:30:12.410Z,764.00
2018-03-28T06:31:12.333Z,736.00
2018-03-28T06:32:12.253Z,716.00
2018-03-28T06:33:12.178Z,584.00
2018-03-28T06:34:12.096Z,584.00
2018-03-28T06:35:12.018Z,612.00
2018-03-28T06:36:11.979Z,644.00
2018-03-28T06:37:11.863Z,684.00
2018-03-28T06:38:11.783Z,768.00
2018-03-28T06:39:11.712Z,884.00
2018-03-28T06:40:11.626Z,908.00
2018-03-28T06:41:11.547Z,964.00
2018-03-28T06:42:11.470Z,768.00
2018-03-28T06:43:11.392Z,748.00
2018-03-28T06:44:11.313Z,908.00
2018-03-28T06:45:11.234Z,872.00
2018-03-28T06:46:11.157Z,844.00
2018-03-28T06:47:11.079Z,976.00
2018-03-28T06:48:10.999Z,1168.00
2018-03-28T06:49:10.921Z,1304.00
2018-03-28T06:50:10.843Z,1372.00
2018-03-28T06:51:10.765Z,1456.00
2018-03-28T06:52:10.687Z,1648.00
2018-03-28T06:53:10.608Z,1876.00
2018-03-28T06:54:10.530Z,1976.00
2018-03-28T06:55:10.500Z,2192.00
2018-03-28T06:56:10.372Z,2124.00
2018-03-28T06:57:10.295Z,2420.00
2018-03-28T06:58:10.217Z,2496.00
2018-03-28T06:59:10.138Z,2304.00
2018-03-28T07:00:10.060Z,2004.00
2018-03-28T07:01:09.981Z,1820.00
2018-03-28T07:02:09.909Z,2008.00
2018-03-28T07:03:09.825Z,2228.00
2018-03-28T07:04:09.746Z,2248.00
2018-03-28T07:05:09.668Z,2088.00
2018-03-28T07:06:09.590Z,2624.00
2018-03-28T07:07:09.512Z,3176.00
2018-03-28T07:08:09.434Z,3888.00
2018-03-28T07:09:09.356Z,3940.00
2018-03-28T07:10:09.279Z,5048.00
2018-03-28T07:11:09.200Z,4984.00
2018-03-28T07:12:09.125Z,5068.00
2018-03-28T07:13:09.043Z,4404.00
2018-03-28T07:14:08.966Z,3912.00
2018-03-28T07:15:08.888Z,3992.00
2018-03-28T07:16:08.809Z,3956.00
2018-03-28T07:17:08.732Z,3608.00
2018-03-28T07:18:08.653Z,3504.00
2018-03-28T07:19:08.576Z,3052.00
2018-03-28T07:20:08.498Z,2764.00
2018-03-28T07:21:08.419Z,2656.00
2018-03-28T07:22:08.342Z,2716.00
2018-03-28T07:23:08.265Z,2728.00
2018-03-28T07:24:08.186Z,2520.00
2018-03-28T07:25:08.109Z,2352.00
2018-03-28T07:26:08.031Z,2336.00
2018-03-28T07:27:07.954Z,2340.00
2018-03-28T07:28:07.876Z,2568.00
2018-03-28T07:29:07.798Z,2884.00
2018-03-28T07:30:07.723Z,2984.00
2018-03-28T07:31:07.643Z,3096.00
2018-03-28T07:32:07.564Z,2916.00
2018-03-28T07:33:07.486Z,2616.00
2018-03-28T07:34:07.408Z,2628.00
2018-03-28T07:35:07.331Z,2932.00
2018-03-28T07:36:07.253Z,3172.00
2018-03-28T07:37:07.175Z,3084.00
2018-03-28T07:38:07.099Z,3384.00
2018-03-28T07:39:07.020Z,3652.00
2018-03-28T07:40:06.941Z,3944.00
2018-03-28T07:41:06.864Z,4056.00
2018-03-28T07:42:06.787Z,4300.00
2018-03-28T07:43:06.709Z,3944.00
2018-03-28T07:44:06.630Z,3148.00
2018-03-28T07:45:06.555Z,2652.00
2018-03-28T07:46:06.476Z,2432.00
2018-03-28T07:47:06.397Z,2052.00
2018-03-28T07:48:06.320Z,2228.00
2018-03-28T07:49:06.242Z,2432.00
2018-03-28T07:50:06.164Z,2612.00
2018-03-28T07:51:06.087Z,2564.00
2018-03-28T07:52:06.009Z,2528.00
2018-03-28T07:53:05.931Z,2412.00
2018-03-28T07:54:05.854Z,2240.00
2018-03-28T07:55:05.777Z,2216.00
2018-03-28T07:56:05.698Z,2244.00
2018-03-28T07:57:05.620Z,2164.00
2018-03-28T07:58:05.543Z,2088.00
2018-03-28T07:59:05.465Z,2064.00
2018-03-28T08:00:05.392Z,2104.00
2018-03-28T08:01:05.310Z,2104.00
2018-03-28T08:02:05.240Z,2116.00
2018-03-28T08:03:05.154Z,2164.00
2018-03-28T08:04:05.076Z,2196.00
2018-03-28T08:05:04.998Z,2088.00
2018-03-28T08:06:04.922Z,2280.00
2018-03-28T08:07:04.844Z,2088.00
2018-03-28T08:08:04.765Z,2224.00
2018-03-28T08:09:04.987Z,2424.00
2018-03-28T08:10:04.610Z,2460.00
2018-03-28T08:11:04.533Z,2128.00
2018-03-28T08:12:04.454Z,2272.00
2018-03-28T08:13:04.375Z,2568.00
2018-03-28T08:14:04.299Z,2532.00
2018-03-28T08:15:04.229Z,2496.00
2018-03-28T08:16:04.143Z,2596.00
2018-03-28T08:17:04.065Z,2808.00
2018-03-28T08:18:03.990Z,2812.00
2018-03-28T08:19:03.912Z,2756.00
2018-03-28T08:20:03.831Z,2808.00
2018-03-28T08:21:03.754Z,3060.00
2018-03-28T08:22:03.677Z,3064.00
2018-03-28T08:23:03.600Z,3160.00
2018-03-28T08:24:03.525Z,3228.00
2018-03-28T08:25:03.445Z,3200.00
2018-03-28T08:26:03.366Z,3080.00
2018-03-28T08:27:03.289Z,3120.00
2018-03-28T08:28:03.212Z,2996.00
2018-03-28T08:29:03.133Z,3300.00
2018-03-28T08:30:03.056Z,3216.00
2018-03-28T08:31:02.979Z,3340.00
2018-03-28T08:32:02.901Z,3440.00
2018-03-28T08:33:02.823Z,3188.00
2018-03-28T08:34:02.745Z,3004.00
2018-03-28T08:35:02.668Z,3076.00
2018-03-28T08:36:02.591Z,3460.00
2018-03-28T08:37:02.513Z,3920.00
2018-03-28T08:38:02.435Z,3504.00
2018-03-28T08:39:02.358Z,3384.00
2018-03-28T08:40:02.280Z,3220.00
2018-03-28T08:41:02.202Z,3196.00
2018-03-28T08:42:02.125Z,3556.00
2018-03-28T08:43:02.047Z,4372.00
2018-03-28T08:44:01.969Z,4720.00
2018-03-28T08:45:01.893Z,4588.00
2018-03-28T08:46:01.815Z,5052.00
2018-03-28T08:47:01.760Z,5328.00
2018-03-28T08:48:01.662Z,4868.00
2018-03-28T08:49:01.582Z,4472.00
2018-03-28T08:50:01.506Z,4940.00
2018-03-28T08:51:01.428Z,4240.00
2018-03-28T08:52:01.350Z,4420.00
2018-03-28T08:53:01.272Z,4696.00
2018-03-28T08:54:01.197Z,4784.00
2018-03-28T08:55:01.118Z,4436.00
2018-03-28T08:56:01.040Z,4684.00
2018-03-28T08:57:00.963Z,4296.00
2018-03-28T08:58:00.888Z,3856.00
2018-03-28T08:59:00.812Z,3856.00
2018-03-28T09:00:00.731Z,4076.00
2018-03-28T09:01:00.663Z,4084.00
2018-03-28T09:02:00.576Z,4524.00
2018-03-28T09:03:00.501Z,5120.00
2018-03-28T09:04:00.424Z,5656.00
2018-03-28T09:05:00.349Z,5608.00
2018-03-28T09:06:00.269Z,5320.00
2018-03-28T09:07:00.191Z,4936.00
2018-03-28T09:08:00.114Z,5284.00
2018-03-28T09:09:00.039Z,5464.00
2018-03-28T09:09:59.959Z,5504.00
2018-03-28T09:10:59.883Z,5464.00
2018-03-28T09:11:59.805Z,5956.00
2018-03-28T09:12:59.728Z,5500.00
2018-03-28T09:13:59.651Z,4804.00
2018-03-28T09:14:59.574Z,4360.00
2018-03-28T09:15:59.499Z,4680.00
2018-03-28T09:16:59.420Z,4636.00
2018-03-28T09:17:59.343Z,4016.00
2018-03-28T09:18:59.266Z,3644.00
2018-03-28T09:19:59.188Z,3788.00
2018-03-28T09:20:59.113Z,3952.00
2018-03-28T09:21:59.035Z,4076.00
2018-03-28T09:22:58.963Z,4432.00
2018-03-28T09:23:58.880Z,4320.00
2018-03-28T09:24:58.804Z,4104.00
2018-03-28T09:25:58.780Z,4352.00
2018-03-28T09:26:58.651Z,4236.00
2018-03-28T09:27:58.577Z,4588.00
2018-03-28T09:28:58.496Z,4608.00
2018-03-28T09:29:58.420Z,4448.00
2018-03-28T09:30:58.342Z,4692.00
2018-03-28T09:31:58.266Z,5196.00
2018-03-28T09:32:58.189Z,5548.00
2018-03-28T09:33:58.113Z,5756.00
2018-03-28T09:34:58.078Z,4904.00
2018-03-28T09:35:57.959Z,4732.00
2018-03-28T09:36:57.883Z,5288.00
2018-03-28T09:37:57.806Z,6004.00
2018-03-28T09:38:57.732Z,6060.00
2018-03-28T09:39:57.652Z,5792.00
2018-03-28T09:40:57.576Z,5488.00
2018-03-28T09:41:57.499Z,5748.00
2018-03-28T09:42:57.423Z,5180.00
2018-03-28T09:43:57.347Z,4828.00
2018-03-28T09:44:57.269Z,4356.00
2018-03-28T09:45:57.193Z,4096.00
2018-03-28T09:46:57.116Z,3916.00
2018-03-28T09:47:57.040Z,4104.00
2018-03-28T09:48:56.963Z,4632.00
2018-03-28T09:49:56.887Z,4652.00
2018-03-28T09:50:56.811Z,4320.00
2018-03-28T09:51:56.734Z,4472.00
2018-03-28T09:52:56.657Z,4304.00
2018-03-28T09:53:56.584Z,4108.00
2018-03-28T09:54:56.505Z,3856.00
2018-03-28T09:55:56.427Z,4444.00
2018-03-28T09:56:56.354Z,4660.00
2018-03-28T09:57:56.275Z,4600.00
2018-03-28T09:58:56.200Z,4936.00
2018-03-28T09:59:56.122Z,4984.00
2018-03-28T10:00:56.046Z,4584.00
2018-03-28T10:01:55.968Z,4632.00
2018-03-28T10:02:55.893Z,4764.00
2018-03-28T10:03:55.818Z,4748.00
2018-03-28T10:04:55.739Z,4036.00
2018-03-28T10:05:55.663Z,3140.00
2018-03-28T10:06:55.588Z,2916.00
2018-03-28T10:07:55.509Z,3080.00
2018-03-28T10:08:55.433Z,3612.00
2018-03-28T10:09:55.364Z,3840.00
2018-03-28T10:10:55.281Z,3616.00
2018-03-28T10:11:55.204Z,3584.00
2018-03-28T10:12:55.127Z,3992.00
2018-03-28T10:13:55.051Z,4340.00
2018-03-28T10:14:54.975Z,4392.00
2018-03-28T10:15:54.898Z,4464.00
2018-03-28T10:16:54.823Z,4644.00
2018-03-28T10:17:54.745Z,5052.00
2018-03-28T10:18:54.669Z,5180.00
2018-03-28T10:19:54.592Z,4752.00
2018-03-28T10:20:54.516Z,4420.00
2018-03-28T10:21:54.440Z,3612.00
2018-03-28T10:22:54.364Z,3632.00
2018-03-28T10:23:54.287Z,3924.00
2018-03-28T10:24:54.213Z,4172.00
2018-03-28T10:25:54.135Z,4748.00
2018-03-28T10:26:54.058Z,5280.00
2018-03-28T10:27:53.981Z,5744.00
2018-03-28T10:28:53.906Z,5748.00
2018-03-28T10:29:53.892Z,5024.00
2018-03-28T10:30:53.754Z,4904.00
2018-03-28T10:31:53.677Z,5376.00
2018-03-28T10:32:53.605Z,5656.00
2018-03-28T10:33:53.525Z,5816.00
2018-03-28T10:34:53.449Z,5724.00
2018-03-28T10:35:53.372Z,5592.00
2018-03-28T10:36:53.297Z,4332.00
2018-03-28T10:37:53.220Z,4096.00
2018-03-28T10:38:53.144Z,4080.00
2018-03-28T10:39:53.068Z,4824.00
2018-03-28T10:40:52.995Z,5272.00
2018-03-28T10:41:52.916Z,5080.00
2018-03-28T10:42:52.840Z,4456.00
2018-03-28T10:43:52.764Z,3696.00
2018-03-28T10:44:52.687Z,3368.00
2018-03-28T10:45:52.612Z,2860.00
2018-03-28T10:46:52.535Z,2612.00
2018-03-28T10:47:52.461Z,2404.00
2018-03-28T10:48:52.382Z,2252.00
2018-03-28T10:49:52.307Z,2156.00
2018-03-28T10:50:52.235Z,2128.00
2018-03-28T10:51:52.154Z,2024.00
2018-03-28T10:52:52.081Z,1972.00
2018-03-28T10:53:52.001Z,2084.00
2018-03-28T10:54:51.926Z,2296.00
2018-03-28T10:55:51.853Z,2700.00
2018-03-28T10:56:51.773Z,3228.00
2018-03-28T10:57:51.697Z,3732.00
2018-03-28T10:58:51.620Z,3888.00
2018-03-28T10:59:51.545Z,4456.00
2018-03-28T11:00:51.467Z,4732.00
2018-03-28T11:01:51.391Z,5000.00
2018-03-28T11:02:51.314Z,5692.00
2018-03-28T11:03:51.237Z,8492.00
2018-03-28T11:04:51.161Z,10596.00
2018-03-28T11:05:51.085Z,14608.00
2018-03-28T11:06:51.009Z,11696.00
2018-03-28T11:07:50.947Z,11144.00
2018-03-28T11:08:50.859Z,10580.00
2018-03-28T11:09:50.781Z,9388.00
2018-03-28T11:10:50.706Z,8180.00
2018-03-28T11:11:50.630Z,8244.00
2018-03-28T11:12:50.555Z,8968.00
2018-03-28T11:13:50.482Z,9312.00
2018-03-28T11:14:50.403Z,7824.00
2018-03-28T11:15:50.327Z,8124.00
2018-03-28T11:16:50.252Z,8552.00
2018-03-28T11:17:50.176Z,8404.00
2018-03-28T11:18:50.100Z,6388.00
2018-03-28T11:19:50.026Z,5952.00
2018-03-28T11:20:49.951Z,5560.00
2018-03-28T11:21:49.876Z,4772.00
2018-03-28T11:22:49.801Z,4416.00
2018-03-28T11:23:49.730Z,3740.00
2018-03-28T11:24:49.650Z,3676.00
2018-03-28T11:25:49.579Z,3804.00
2018-03-28T11:26:49.499Z,4132.00
2018-03-28T11:27:49.432Z,3944.00
2018-03-28T11:28:49.349Z,4120.00
2018-03-28T11:29:49.274Z,4284.00
2018-03-28T11:30:49.199Z,4144.00
2018-03-28T11:31:49.123Z,4008.00
2018-03-28T11:32:49.047Z,3956.00
2018-03-28T11:33:48.973Z,4016.00
2018-03-28T11:34:48.897Z,3984.00
2018-03-28T11:35:48.821Z,3992.00
2018-03-28T11:36:48.746Z,4580.00
2018-03-28T11:37:48.670Z,5188.00
2018-03-28T11:38:48.595Z,5060.00
2018-03-28T11:39:48.519Z,5560.00
2018-03-28T11:40:48.443Z,5368.00
2018-03-28T11:41:48.368Z,5896.00
2018-03-28T11:42:48.292Z,6120.00
2018-03-28T11:43:48.226Z,6100.00
2018-03-28T11:44:48.141Z,6264.00
2018-03-28T11:45:48.067Z,6856.00
2018-03-28T11:46:47.990Z,6816.00
2018-03-28T11:47:47.914Z,6772.00
2018-03-28T11:48:47.841Z,6520.00
2018-03-28T11:49:47.763Z,7176.00
2018-03-28T11:50:47.688Z,7928.00
2018-03-28T11:51:47.612Z,10000.00
2018-03-28T11:52:47.536Z,10880.00
2018-03-28T11:53:47.466Z,11628.00
2018-03-28T11:54:47.386Z,9200.00
2018-03-28T11:55:47.310Z,7416.00
2018-03-28T11:56:47.236Z,8728.00
2018-03-28T11:57:47.164Z,8896.00
2018-03-28T11:58:47.089Z,10520.00
2018-03-28T11:59:47.011Z,12224.00
2018-03-28T12:00:46.936Z,12264.00
2018-03-28T12:01:46.862Z,12296.00
2018-03-28T12:02:46.788Z,11408.00
2018-03-28T12:03:46.712Z,12836.00
2018-03-28T12:04:46.638Z,26368.00
2018-03-28T12:05:46.564Z,32224.00
2018-03-28T12:06:46.489Z,34816.00
2018-03-28T12:07:46.416Z,16832.00
2018-03-28T12:08:46.341Z,31232.00
2018-03-28T12:09:46.267Z,31552.00
2018-03-28T12:10:46.194Z,33600.00
2018-03-28T12:11:46.128Z,36672.00
2018-03-28T12:12:46.047Z,36736.00
2018-03-28T12:13:45.974Z,44256.00
2018-03-28T12:14:45.902Z,56192.00
2018-03-28T12:15:45.829Z,62016.00
2018-03-28T12:16:45.762Z,68448.00
2018-03-28T12:17:45.688Z,76096.00
2018-03-28T12:18:45.614Z,72640.00
2018-03-28T12:19:45.546Z,73120.00
2018-03-28T12:20:45.471Z,76192.00
2018-03-28T12:21:45.401Z,75552.00
2018-03-28T12:22:45.331Z,71808.00
2018-03-28T12:23:45.261Z,73952.00
2018-03-28T12:24:45.195Z,68768.00
2018-03-28T12:25:45.124Z,68512.00
2018-03-28T12:26:45.054Z,63936.00
2018-03-28T12:27:44.986Z,62496.00
2018-03-28T12:28:44.918Z,24544.00
2018-03-28T12:29:44.850Z,16480.00
2018-03-28T12:30:44.783Z,13000.00
2018-03-28T12:31:44.715Z,9544.00
2018-03-28T12:32:44.646Z,7212.00
2018-03-28T12:33:44.579Z,7252.00
2018-03-28T12:34:44.511Z,7456.00